To NAV CANADA Home Page Login to a new session Search on AWWS site Feedback and Comments Disclaimer Vers la page française équivalente Tips FAQ What's new on the site To the Forecasts and Observations / NOTAM section To "File a Flight Plan" website Publications and other links Update of the User's profile FIC Telephone Numbers My Weather Data Folder Route Weather Data Regional Weather Data Local Weather Data To the Forecasts and Observations / NOTAM section
Request Generated 06/26/2017 at 22:34:20 UTC . Weather information available at that time is displayed.

METAR/TAF

OTTAWA/GATINEAU/QC    

METAR CYND 262200Z 19004KT 180V240 15SM BKN066 BKN100 20/07 A2991 RMK
CU5AC1 SLP129 DENSITY ALT 900FT=
METAR CYND 262100Z 29004KT 260V350 15SM SCT066 BKN160 21/06 A2992 RMK
CU4AC1 SLP132 DENSITY ALT 1000FT=
METAR CYND 262000Z 11005KT 040V130 15SM SCT066 BKN160 BKN250 21/06
A2993 RMK CU4AC1CI1 CI TR SLP136 DENSITY ALT 1000FT=

TAF CYND 261741Z 2618/2701 33005KT P6SM FEW060 SCT250
FM262000 17005KT P6SM BKN050 TEMPO 2620/2701 4SM -SHRA BR PROB30
2621/2701 VRB15G25KT 2SM TSRA BR BKN020 OVC040CB
RMK NXT FCST WILL BE ISSUED AT 271245Z=
Your time UTC time
Weather data provided by Environment Canada and NAV CANADA